createdAt,value
2018-11-28T00:00:32.950Z,13.40
2018-11-28T00:01:32.936Z,13.80
2018-11-28T00:02:32.927Z,13.50
2018-11-28T00:03:32.911Z,12.90
2018-11-28T00:04:32.900Z,12.70
2018-11-28T00:05:32.890Z,12.90
2018-11-28T00:06:32.879Z,13.30
2018-11-28T00:07:32.867Z,13.00
2018-11-28T00:08:32.855Z,12.90
2018-11-28T00:09:41.489Z,13.30
2018-11-28T00:11:03.815Z,12.30
2018-11-28T00:12:10.932Z,13.20
2018-11-28T00:13:45.344Z,12.70
2018-11-28T00:14:45.331Z,12.80
2018-11-28T00:16:26.884Z,11.90
2018-11-28T00:17:26.857Z,12.90
2018-11-28T00:19:08.395Z,11.80
2018-11-28T00:20:08.384Z,12.60
2018-11-28T00:21:49.935Z,11.60
2018-11-28T00:22:59.558Z,12.90
2018-11-28T00:24:31.961Z,11.00
2018-11-28T00:25:39.093Z,12.80
2018-11-28T00:27:13.501Z,10.80
2018-11-28T00:28:22.108Z,12.80
2018-11-28T00:29:55.511Z,12.10
2018-11-28T00:31:02.834Z,12.60
2018-11-28T00:32:46.131Z,12.80
2018-11-28T00:33:45.656Z,12.90
2018-11-28T00:35:19.082Z,11.20
2018-11-28T00:36:27.690Z,12.90
2018-11-28T00:37:50.224Z,11.40
2018-11-28T00:38:50.211Z,11.90
2018-11-28T00:39:50.198Z,11.50
2018-11-28T00:40:50.195Z,12.40
2018-11-28T00:41:50.183Z,11.90
2018-11-28T00:42:50.167Z,11.50
2018-11-28T00:43:50.154Z,11.50
2018-11-28T00:44:50.147Z,11.70
2018-11-28T00:45:50.139Z,11.70
2018-11-28T00:46:50.138Z,12.40
2018-11-28T00:47:50.111Z,11.90
2018-11-28T00:48:50.104Z,11.50
2018-11-28T00:49:50.088Z,13.00
2018-11-28T00:50:50.077Z,11.80
2018-11-28T00:51:50.070Z,12.80
2018-11-28T00:52:50.063Z,12.10
2018-11-28T00:53:50.048Z,12.70
2018-11-28T00:54:50.037Z,11.70
2018-11-28T00:55:50.036Z,12.30
2018-11-28T00:56:50.016Z,12.80
2018-11-28T00:57:49.999Z,12.80
2018-11-28T00:58:49.988Z,13.20
2018-11-28T00:59:49.985Z,12.50
2018-11-28T01:00:49.972Z,12.10
2018-11-28T01:01:49.955Z,12.80
2018-11-28T01:02:49.955Z,12.60
2018-11-28T01:03:49.939Z,12.30
2018-11-28T01:04:49.923Z,12.60
2018-11-28T01:05:49.913Z,12.80
2018-11-28T01:06:49.911Z,12.80
2018-11-28T01:07:49.898Z,11.80
2018-11-28T01:08:49.884Z,12.40
2018-11-28T01:09:49.871Z,13.40
2018-11-28T01:10:49.862Z,12.30
2018-11-28T01:11:49.848Z,11.90
2018-11-28T01:12:49.837Z,12.00
2018-11-28T01:13:49.824Z,12.80
2018-11-28T01:14:49.813Z,12.40
2018-11-28T01:15:49.807Z,11.90
2018-11-28T01:16:49.791Z,12.60
2018-11-28T01:17:49.787Z,12.70
2018-11-28T01:18:49.769Z,13.00
2018-11-28T01:19:49.763Z,12.30
2018-11-28T01:20:49.750Z,12.40
2018-11-28T01:21:49.741Z,12.90
2018-11-28T01:22:49.736Z,12.80
2018-11-28T01:23:49.715Z,11.90
2018-11-28T01:24:49.709Z,12.80
2018-11-28T01:25:49.697Z,11.40
2018-11-28T01:26:49.691Z,11.80
2018-11-28T01:27:49.675Z,11.20
2018-11-28T01:28:49.659Z,11.80
2018-11-28T01:29:49.649Z,11.80
2018-11-28T01:30:49.638Z,11.30
2018-11-28T01:31:49.635Z,12.20
2018-11-28T01:32:49.631Z,12.20
2018-11-28T01:33:49.606Z,12.40
2018-11-28T01:34:49.593Z,12.20
2018-11-28T01:35:49.587Z,11.90
2018-11-28T01:36:49.580Z,12.10
2018-11-28T01:37:49.569Z,12.60
2018-11-28T01:38:49.553Z,11.70
2018-11-28T01:39:49.544Z,12.00
2018-11-28T01:40:49.532Z,12.20
2018-11-28T01:41:49.523Z,12.20
2018-11-28T01:42:49.511Z,12.30
2018-11-28T01:43:49.506Z,12.40
2018-11-28T01:44:49.489Z,12.60
2018-11-28T01:45:49.484Z,12.80
2018-11-28T01:46:49.468Z,12.30
2018-11-28T01:47:49.453Z,13.60
2018-11-28T01:48:49.452Z,13.20
2018-11-28T01:49:49.428Z,12.50
2018-11-28T01:50:49.422Z,13.00
2018-11-28T01:51:49.411Z,12.40
2018-11-28T01:52:49.395Z,12.40
2018-11-28T01:53:49.416Z,13.50
2018-11-28T01:54:49.378Z,12.20
2018-11-28T01:55:49.362Z,13.60
2018-11-28T01:56:49.351Z,12.70
2018-11-28T01:57:49.344Z,12.70
2018-11-28T01:58:49.334Z,13.20
2018-11-28T01:59:49.324Z,13.40
2018-11-28T02:00:49.307Z,13.50
2018-11-28T02:01:49.295Z,13.40
2018-11-28T02:02:49.286Z,13.50
2018-11-28T02:03:49.274Z,13.40
2018-11-28T02:04:49.268Z,14.20
2018-11-28T02:05:49.263Z,14.00
2018-11-28T02:06:49.240Z,13.70
2018-11-28T02:07:49.235Z,14.70
2018-11-28T02:08:49.218Z,14.80
2018-11-28T02:09:49.211Z,13.80
2018-11-28T02:10:49.209Z,14.60
2018-11-28T02:11:49.196Z,14.30
2018-11-28T02:12:49.179Z,14.80
2018-11-28T02:13:49.168Z,14.60
2018-11-28T02:14:49.152Z,13.60
2018-11-28T02:15:49.150Z,14.60
2018-11-28T02:16:49.135Z,14.30
2018-11-28T02:17:49.118Z,15.10
2018-11-28T02:18:49.112Z,15.00
2018-11-28T02:19:49.102Z,15.00
2018-11-28T02:20:49.091Z,15.70
2018-11-28T02:21:49.080Z,14.80
2018-11-28T02:22:49.070Z,15.20
2018-11-28T02:23:49.058Z,14.70
2018-11-28T02:24:49.044Z,13.90
2018-11-28T02:25:49.038Z,14.50
2018-11-28T02:26:49.027Z,15.20
2018-11-28T02:27:49.016Z,15.80
2018-11-28T02:28:49.004Z,15.20
2018-11-28T02:29:48.989Z,15.70
2018-11-28T02:30:48.981Z,15.90
2018-11-28T02:31:48.969Z,15.50
2018-11-28T02:32:48.960Z,15.60
2018-11-28T02:33:48.943Z,16.50
2018-11-28T02:34:48.931Z,15.10
2018-11-28T02:35:48.926Z,16.00
2018-11-28T02:36:48.914Z,15.80
2018-11-28T02:37:48.903Z,15.50
2018-11-28T02:38:48.894Z,15.20
2018-11-28T02:39:48.878Z,15.40
2018-11-28T02:40:48.872Z,16.00
2018-11-28T02:41:48.854Z,15.30
2018-11-28T02:42:48.851Z,15.70
2018-11-28T02:43:48.833Z,15.70
2018-11-28T02:44:48.826Z,15.40
2018-11-28T02:45:48.815Z,16.00
2018-11-28T02:46:48.805Z,15.30
2018-11-28T02:47:48.789Z,16.50
2018-11-28T02:48:48.784Z,16.50
2018-11-28T02:49:48.766Z,15.90
2018-11-28T02:50:48.757Z,16.00
2018-11-28T02:51:48.811Z,15.60
2018-11-28T02:52:48.738Z,15.70
2018-11-28T02:53:48.738Z,16.10
2018-11-28T02:54:48.712Z,16.90
2018-11-28T02:55:48.701Z,16.20
2018-11-28T02:56:48.693Z,15.70
2018-11-28T02:57:48.683Z,16.00
2018-11-28T02:58:48.669Z,15.60
2018-11-28T02:59:48.657Z,16.30
2018-11-28T03:00:48.650Z,16.50
2018-11-28T03:01:48.638Z,16.10
2018-11-28T03:02:48.636Z,17.00
2018-11-28T03:03:48.613Z,16.10
2018-11-28T03:04:48.609Z,16.30
2018-11-28T03:05:48.594Z,16.70
2018-11-28T03:06:48.583Z,15.90
2018-11-28T03:07:48.568Z,15.20
2018-11-28T03:08:48.564Z,15.90
2018-11-28T03:09:48.546Z,16.50
2018-11-28T03:10:48.535Z,16.30
2018-11-28T03:11:48.528Z,16.50
2018-11-28T03:12:48.530Z,17.20
2018-11-28T03:13:48.505Z,16.00
2018-11-28T03:14:48.495Z,16.80
2018-11-28T03:15:48.483Z,16.00
2018-11-28T03:16:48.479Z,16.20
2018-11-28T03:17:48.460Z,16.40
2018-11-28T03:18:48.460Z,16.90
2018-11-28T03:19:48.435Z,16.50
2018-11-28T03:20:48.429Z,16.60
2018-11-28T03:21:48.414Z,17.00
2018-11-28T03:22:48.407Z,17.60
2018-11-28T03:23:48.396Z,17.00
2018-11-28T03:24:48.391Z,16.00
2018-11-28T03:25:48.377Z,17.10
2018-11-28T03:26:48.365Z,17.20
2018-11-28T03:27:48.352Z,16.90
2018-11-28T03:28:48.342Z,16.40
2018-11-28T03:29:48.326Z,15.90
2018-11-28T03:30:48.318Z,16.10
2018-11-28T03:31:48.340Z,16.20
2018-11-28T03:32:48.324Z,17.10
2018-11-28T03:33:48.287Z,16.50
2018-11-28T03:34:48.272Z,16.20
2018-11-28T03:35:48.264Z,16.50
2018-11-28T03:36:48.273Z,16.20
2018-11-28T03:37:48.237Z,17.60
2018-11-28T03:38:48.231Z,16.90
2018-11-28T03:39:48.216Z,16.50
2018-11-28T03:40:48.209Z,16.70
2018-11-28T03:41:48.195Z,16.70
2018-11-28T03:42:48.182Z,16.80
2018-11-28T03:43:48.177Z,17.30
2018-11-28T03:44:48.168Z,16.90
2018-11-28T03:45:48.154Z,16.80
2018-11-28T03:46:48.143Z,17.60
2018-11-28T03:47:48.130Z,18.00
2018-11-28T03:48:48.123Z,18.00
2018-11-28T03:49:48.117Z,16.90
2018-11-28T03:50:48.096Z,17.40
2018-11-28T03:51:48.089Z,17.50
2018-11-28T03:52:48.078Z,16.60
2018-11-28T03:53:48.062Z,18.20
2018-11-28T03:54:48.051Z,18.90
2018-11-28T03:55:48.040Z,17.40
2018-11-28T03:56:48.035Z,17.20
2018-11-28T03:57:48.028Z,17.30
2018-11-28T03:58:48.006Z,17.20
2018-11-28T03:59:48.004Z,17.30
2018-11-28T04:00:47.990Z,17.80
2018-11-28T04:01:47.980Z,18.20
2018-11-28T04:02:47.963Z,17.20
2018-11-28T04:03:47.952Z,17.00
2018-11-28T04:04:47.948Z,17.40
2018-11-28T04:05:47.931Z,17.30
2018-11-28T04:06:47.924Z,17.60
2018-11-28T04:07:47.910Z,17.70
2018-11-28T04:08:47.897Z,18.00
2018-11-28T04:09:47.893Z,18.50
2018-11-28T04:10:47.885Z,17.70
2018-11-28T04:11:47.865Z,19.50
2018-11-28T04:12:47.855Z,18.90
2018-11-28T04:13:47.842Z,19.30
2018-11-28T04:14:47.832Z,17.90
2018-11-28T04:15:47.820Z,18.70
2018-11-28T04:16:47.814Z,18.00
2018-11-28T04:17:47.808Z,17.10
2018-11-28T04:18:47.792Z,18.40
2018-11-28T04:19:47.787Z,17.70
2018-11-28T04:20:47.766Z,17.40
2018-11-28T04:21:47.759Z,17.20
2018-11-28T04:22:47.747Z,17.50
2018-11-28T04:23:47.765Z,17.50
2018-11-28T04:24:47.726Z,17.70
2018-11-28T04:25:47.716Z,18.20
2018-11-28T04:26:47.705Z,18.60
2018-11-28T04:27:47.691Z,17.50
2018-11-28T04:28:47.684Z,17.50
2018-11-28T04:29:47.666Z,17.30
2018-11-28T04:30:47.665Z,17.70
2018-11-28T04:31:47.650Z,18.50
2018-11-28T04:32:47.635Z,18.00
2018-11-28T04:33:47.629Z,18.50
2018-11-28T04:34:47.611Z,18.20
2018-11-28T04:35:47.605Z,18.20
2018-11-28T04:36:47.597Z,18.20
2018-11-28T04:37:47.583Z,18.40
2018-11-28T04:38:47.573Z,17.60
2018-11-28T04:39:47.564Z,18.40
2018-11-28T04:40:47.550Z,17.70
2018-11-28T04:41:47.541Z,18.50
2018-11-28T04:42:47.530Z,18.00
2018-11-28T04:43:47.518Z,17.80
2018-11-28T04:44:47.510Z,18.20
2018-11-28T04:45:47.492Z,17.70
2018-11-28T04:46:47.479Z,18.60
2018-11-28T04:47:47.478Z,17.80
2018-11-28T04:48:47.463Z,18.00
2018-11-28T04:49:47.449Z,18.30
2018-11-28T04:50:47.438Z,19.50
2018-11-28T04:51:47.425Z,18.30
2018-11-28T04:52:47.418Z,18.10
2018-11-28T04:53:47.411Z,18.10
2018-11-28T04:54:47.396Z,17.30
2018-11-28T04:55:47.388Z,17.70
2018-11-28T04:56:47.370Z,17.80
2018-11-28T04:57:47.386Z,18.40
2018-11-28T04:58:47.355Z,18.50
2018-11-28T04:59:47.343Z,18.10
2018-11-28T05:00:47.334Z,18.00
2018-11-28T05:01:47.326Z,19.30
2018-11-28T05:02:47.306Z,18.10
2018-11-28T05:03:47.300Z,19.00
2018-11-28T05:04:47.287Z,21.20
2018-11-28T05:05:47.275Z,22.40
2018-11-28T05:06:47.264Z,22.20
2018-11-28T05:07:47.248Z,46.60
2018-11-28T05:08:47.243Z,33.30
2018-11-28T05:09:47.234Z,34.80
2018-11-28T05:10:47.215Z,34.20
2018-11-28T05:11:47.205Z,32.90
2018-11-28T05:12:47.201Z,28.00
2018-11-28T05:13:47.183Z,24.70
2018-11-28T05:14:47.172Z,24.60
2018-11-28T05:15:47.165Z,23.10
2018-11-28T05:16:47.156Z,23.30
2018-11-28T05:17:47.143Z,27.40
2018-11-28T05:18:47.137Z,25.70
2018-11-28T05:19:47.116Z,24.70
2018-11-28T05:20:47.113Z,23.50
2018-11-28T05:21:47.095Z,23.70
2018-11-28T05:22:47.084Z,28.50
2018-11-28T05:23:47.076Z,30.80
2018-11-28T05:24:47.062Z,30.00
2018-11-28T05:25:47.057Z,29.90
2018-11-28T05:26:47.040Z,26.70
2018-11-28T05:27:47.034Z,27.60
2018-11-28T05:28:47.023Z,25.90
2018-11-28T05:29:47.014Z,24.20
2018-11-28T05:30:47.001Z,23.70
2018-11-28T05:31:46.990Z,24.40
2018-11-28T05:32:46.982Z,23.40
2018-11-28T05:33:46.972Z,23.80
2018-11-28T05:34:46.959Z,23.40
2018-11-28T05:35:46.941Z,22.40
2018-11-28T05:36:46.931Z,22.30
2018-11-28T05:37:46.922Z,24.10
2018-11-28T05:38:46.914Z,26.40
2018-11-28T05:39:46.898Z,24.90
2018-11-28T05:40:46.899Z,32.80
2018-11-28T05:41:46.882Z,32.90
2018-11-28T05:42:46.871Z,35.30
2018-11-28T05:43:46.854Z,33.70
2018-11-28T05:44:46.843Z,28.90
2018-11-28T05:45:46.842Z,31.00
2018-11-28T05:46:46.832Z,26.20
2018-11-28T05:47:46.827Z,25.10
2018-11-28T05:48:46.799Z,26.10
2018-11-28T05:49:46.789Z,25.40
2018-11-28T05:50:46.778Z,26.00
2018-11-28T05:51:46.772Z,25.10
2018-11-28T05:52:46.756Z,25.40
2018-11-28T05:53:46.744Z,24.90
2018-11-28T05:54:46.733Z,24.70
2018-11-28T05:55:46.722Z,25.40
2018-11-28T05:56:46.717Z,24.80
2018-11-28T05:57:46.705Z,25.90
2018-11-28T05:58:46.698Z,25.90
2018-11-28T05:59:46.678Z,28.80
2018-11-28T06:00:46.672Z,30.50
2018-11-28T06:01:46.662Z,28.40
2018-11-28T06:02:46.647Z,29.50
2018-11-28T06:03:46.645Z,27.30
2018-11-28T06:04:46.623Z,26.70
2018-11-28T06:05:46.617Z,28.00
2018-11-28T06:06:46.603Z,25.80
2018-11-28T06:07:46.599Z,25.00
2018-11-28T06:08:46.586Z,26.90
2018-11-28T06:09:46.568Z,27.80
2018-11-28T06:10:46.565Z,27.10
2018-11-28T06:11:46.547Z,24.90
2018-11-28T06:12:46.541Z,26.80
2018-11-28T06:13:46.533Z,26.60
2018-11-28T06:14:46.514Z,27.70
2018-11-28T06:15:46.537Z,28.20
2018-11-28T06:16:46.492Z,27.20
2018-11-28T06:17:46.485Z,27.10
2018-11-28T06:18:46.476Z,27.70
2018-11-28T06:19:46.465Z,27.10
2018-11-28T06:20:46.454Z,27.10
2018-11-28T06:21:46.445Z,27.50
2018-11-28T06:22:46.433Z,26.70
2018-11-28T06:23:46.420Z,27.40
2018-11-28T06:24:46.410Z,28.00
2018-11-28T06:25:46.400Z,27.60
2018-11-28T06:26:46.392Z,27.80
2018-11-28T06:27:46.377Z,27.60
2018-11-28T06:28:46.361Z,27.10
2018-11-28T06:29:46.352Z,28.50
2018-11-28T06:30:46.345Z,28.70
2018-11-28T06:31:46.334Z,27.10
2018-11-28T06:32:51.232Z,27.30
2018-11-28T06:33:47.312Z,48.30
2018-11-28T06:34:46.300Z,230.90
2018-11-28T06:35:46.285Z,158.20
2018-11-28T06:36:46.273Z,80.80
2018-11-28T06:37:46.268Z,62.50
2018-11-28T06:38:46.258Z,87.70
2018-11-28T06:39:46.246Z,67.00
2018-11-28T06:40:46.229Z,47.50
2018-11-28T06:41:46.225Z,38.60
2018-11-28T06:42:46.212Z,38.40
2018-11-28T06:43:46.198Z,31.40
2018-11-28T06:44:46.189Z,31.70
2018-11-28T06:45:46.186Z,30.50
2018-11-28T06:46:46.170Z,28.60
2018-11-28T06:47:46.154Z,28.50
2018-11-28T06:48:46.143Z,27.60
2018-11-28T06:49:46.143Z,28.80
2018-11-28T06:50:46.125Z,28.30
2018-11-28T06:51:46.109Z,28.50
2018-11-28T06:52:46.099Z,28.50
2018-11-28T06:53:47.208Z,28.30
2018-11-28T06:54:46.079Z,29.10
2018-11-28T06:55:46.071Z,28.60
2018-11-28T06:56:46.059Z,28.20
2018-11-28T06:57:46.049Z,30.10
2018-11-28T06:58:46.038Z,30.20
2018-11-28T06:59:46.030Z,30.00
2018-11-28T07:00:46.021Z,28.50
2018-11-28T07:01:46.003Z,29.50
2018-11-28T07:02:45.990Z,29.20
2018-11-28T07:03:45.984Z,30.30
2018-11-28T07:04:45.968Z,32.50
2018-11-28T07:05:45.959Z,31.30
2018-11-28T07:06:45.950Z,31.30
2018-11-28T07:07:45.941Z,30.00
2018-11-28T07:08:45.929Z,30.80
2018-11-28T07:09:45.917Z,34.90
2018-11-28T07:10:45.901Z,32.80
2018-11-28T07:11:45.897Z,31.70
2018-11-28T07:12:45.895Z,30.90
2018-11-28T07:13:45.868Z,33.10
2018-11-28T07:14:45.859Z,30.40
2018-11-28T07:15:45.857Z,30.60
2018-11-28T07:16:45.840Z,29.70
2018-11-28T07:17:45.836Z,29.70
2018-11-28T07:18:45.814Z,31.00
2018-11-28T07:19:45.807Z,29.80
2018-11-28T07:20:45.795Z,28.80
2018-11-28T07:21:45.786Z,29.00
2018-11-28T07:22:45.780Z,27.20
2018-11-28T07:23:45.764Z,27.80
2018-11-28T07:24:45.747Z,28.90
2018-11-28T07:25:45.742Z,28.00
2018-11-28T07:26:45.726Z,27.90
2018-11-28T07:27:45.733Z,28.40
2018-11-28T07:28:45.716Z,28.20
2018-11-28T07:29:45.697Z,28.80
2018-11-28T07:30:45.685Z,26.80
2018-11-28T07:31:45.676Z,27.90
2018-11-28T07:32:45.661Z,26.30
2018-11-28T07:33:45.659Z,27.60
2018-11-28T07:34:45.649Z,26.50
2018-11-28T07:35:45.629Z,27.70
2018-11-28T07:36:45.623Z,26.60
2018-11-28T07:37:45.605Z,24.80
2018-11-28T07:38:45.601Z,26.40
2018-11-28T07:39:45.587Z,27.40
2018-11-28T07:40:45.579Z,27.90
2018-11-28T07:41:45.567Z,26.60
2018-11-28T07:42:45.558Z,29.50
2018-11-28T07:43:45.554Z,28.80
2018-11-28T07:44:45.528Z,27.40
2018-11-28T07:45:45.542Z,27.50
2018-11-28T07:46:45.521Z,26.30
2018-11-28T07:47:45.499Z,26.10
2018-11-28T07:48:45.492Z,26.50
2018-11-28T07:49:45.481Z,26.40
2018-11-28T07:50:45.468Z,26.50
2018-11-28T07:51:45.461Z,26.40
2018-11-28T07:52:45.448Z,26.70
2018-11-28T07:53:45.436Z,25.60
2018-11-28T07:54:45.425Z,28.00
2018-11-28T07:55:45.412Z,26.10
2018-11-28T07:56:45.399Z,26.90
2018-11-28T07:57:45.393Z,25.40
2018-11-28T07:58:45.381Z,25.70
2018-11-28T07:59:45.399Z,23.80
2018-11-28T08:00:45.354Z,25.00
2018-11-28T08:01:45.396Z,25.20
2018-11-28T08:02:45.349Z,24.20
2018-11-28T08:03:45.326Z,24.40
2018-11-28T08:04:45.337Z,24.00
2018-11-28T08:05:45.307Z,21.70
2018-11-28T08:06:45.291Z,23.60
2018-11-28T08:07:45.284Z,21.90
2018-11-28T08:08:52.413Z,23.70
2018-11-28T08:10:26.913Z,21.50
2018-11-28T08:11:36.443Z,26.30
2018-11-28T08:13:08.346Z,20.00
2018-11-28T08:14:15.474Z,23.60
2018-11-28T08:15:49.903Z,19.30
2018-11-28T08:16:49.872Z,23.40
2018-11-28T08:18:31.407Z,21.50
2018-11-28T08:19:31.396Z,23.00
2018-11-28T08:20:31.386Z,22.80
2018-11-28T08:21:31.376Z,22.50
2018-11-28T08:22:31.365Z,22.50
2018-11-28T08:23:31.355Z,22.50
2018-11-28T08:24:31.343Z,21.60
2018-11-28T08:25:31.332Z,21.80
2018-11-28T08:26:38.462Z,21.70
2018-11-28T08:28:12.963Z,20.20
2018-11-28T08:29:21.022Z,22.30
2018-11-28T08:30:43.358Z,19.80
2018-11-28T08:31:43.346Z,20.30
2018-11-28T08:33:36.841Z,17.60
2018-11-28T08:34:36.819Z,20.60
2018-11-28T08:35:36.720Z,19.90
2018-11-28T08:36:36.705Z,19.50
2018-11-28T08:37:36.691Z,21.60
2018-11-28T08:38:36.685Z,20.70
2018-11-28T08:39:36.669Z,20.20
2018-11-28T08:40:36.663Z,20.50
2018-11-28T08:41:36.660Z,20.80
2018-11-28T08:42:36.641Z,19.50
2018-11-28T08:43:36.631Z,21.40
2018-11-28T08:44:36.641Z,20.40
2018-11-28T08:45:36.603Z,21.50
2018-11-28T08:46:36.598Z,21.40
2018-11-28T08:47:36.588Z,21.10
2018-11-28T08:48:36.578Z,21.50
2018-11-28T08:49:36.630Z,20.90
2018-11-28T08:50:36.565Z,22.50
2018-11-28T08:51:37.414Z,20.10
2018-11-28T08:52:36.536Z,20.80
2018-11-28T08:53:36.521Z,20.40
2018-11-28T08:54:36.519Z,20.10
2018-11-28T08:55:36.526Z,19.40
2018-11-28T08:56:36.485Z,18.90
2018-11-28T08:57:36.473Z,19.70
2018-11-28T08:58:36.462Z,19.80
2018-11-28T08:59:36.462Z,20.10
2018-11-28T09:00:36.446Z,18.90
2018-11-28T09:01:36.915Z,19.80
2018-11-28T09:02:36.422Z,19.20
2018-11-28T09:03:36.463Z,19.80
2018-11-28T09:04:36.411Z,21.10
2018-11-28T09:05:36.390Z,19.40
2018-11-28T09:06:36.384Z,19.40
2018-11-28T09:07:36.374Z,20.20
2018-11-28T09:08:36.360Z,19.40
2018-11-28T09:09:36.344Z,20.30
2018-11-28T09:10:36.331Z,19.80
2018-11-28T09:11:36.321Z,19.20
2018-11-28T09:12:36.348Z,20.50
2018-11-28T09:13:36.302Z,19.00
2018-11-28T09:14:36.295Z,18.90
2018-11-28T09:15:36.396Z,18.60
2018-11-28T09:16:36.268Z,19.70
2018-11-28T09:17:36.259Z,19.70
2018-11-28T09:18:36.253Z,19.80
2018-11-28T09:19:36.231Z,19.10
2018-11-28T09:20:36.221Z,18.50
2018-11-28T09:21:36.242Z,19.50
2018-11-28T09:22:36.205Z,19.00
2018-11-28T09:23:36.200Z,18.20
2018-11-28T09:24:36.179Z,18.50
2018-11-28T09:25:36.188Z,18.80
2018-11-28T09:26:36.157Z,18.00
2018-11-28T09:27:36.143Z,18.50
2018-11-28T09:28:36.133Z,17.70
2018-11-28T09:29:36.166Z,18.10
2018-11-28T09:30:36.115Z,17.10
2018-11-28T09:31:36.108Z,17.70
2018-11-28T09:32:36.098Z,17.80
2018-11-28T09:33:36.078Z,18.70
2018-11-28T09:34:36.141Z,17.80
2018-11-28T09:35:36.061Z,18.30
2018-11-28T09:36:36.050Z,18.30
2018-11-28T09:37:36.034Z,18.10
2018-11-28T09:38:36.023Z,17.60
2018-11-28T09:39:36.017Z,17.30
2018-11-28T09:40:36.012Z,17.40
2018-11-28T09:41:35.990Z,17.30
2018-11-28T09:42:35.980Z,16.80
2018-11-28T09:43:35.969Z,16.40
2018-11-28T09:44:35.962Z,18.00
2018-11-28T09:45:35.947Z,17.40
2018-11-28T09:46:35.940Z,15.20
2018-11-28T09:47:35.933Z,16.30
2018-11-28T09:48:35.913Z,15.40
2018-11-28T09:49:35.944Z,15.50
2018-11-28T09:50:35.891Z,15.20
2018-11-28T09:51:35.887Z,15.00
2018-11-28T09:52:36.135Z,15.40
2018-11-28T09:53:35.863Z,14.20
2018-11-28T09:54:35.848Z,14.60
2018-11-28T09:55:35.915Z,15.30
2018-11-28T09:56:35.825Z,13.90
2018-11-28T09:57:35.818Z,15.10
2018-11-28T09:58:35.808Z,14.30
2018-11-28T09:59:35.792Z,14.30
2018-11-28T10:00:37.026Z,14.30
2018-11-28T10:01:35.770Z,14.10
2018-11-28T10:02:35.761Z,12.90
2018-11-28T10:03:35.753Z,12.50
2018-11-28T10:04:35.776Z,13.20
2018-11-28T10:05:35.727Z,12.80
2018-11-28T10:06:35.724Z,12.60
2018-11-28T10:07:35.706Z,11.70
2018-11-28T10:08:35.701Z,12.50
2018-11-28T10:09:35.711Z,12.90
2018-11-28T10:10:35.720Z,12.70
2018-11-28T10:11:35.691Z,13.00
2018-11-28T10:12:35.668Z,13.20
2018-11-28T10:13:35.733Z,12.80
2018-11-28T10:14:35.664Z,13.00
2018-11-28T10:15:35.880Z,13.40
2018-11-28T10:16:35.606Z,13.70
2018-11-28T10:17:35.643Z,11.90
2018-11-28T10:18:35.903Z,12.50
2018-11-28T10:19:35.577Z,12.50
2018-11-28T10:20:35.570Z,12.50
2018-11-28T10:21:35.577Z,12.20
2018-11-28T10:22:35.636Z,12.20
2018-11-28T10:23:35.529Z,11.80
2018-11-28T10:24:35.520Z,11.80
2018-11-28T10:25:35.507Z,10.90
2018-11-28T10:26:35.498Z,10.80
2018-11-28T10:27:35.483Z,11.50
2018-11-28T10:28:35.474Z,16.20
2018-11-28T10:29:35.481Z,9.70
2018-11-28T10:30:35.468Z,11.00
2018-11-28T10:31:35.448Z,12.20
2018-11-28T10:32:35.429Z,15.00
2018-11-28T10:33:35.423Z,13.90
2018-11-28T10:34:35.412Z,11.40
2018-11-28T10:35:35.403Z,11.50
2018-11-28T10:36:35.441Z,11.60
2018-11-28T10:37:35.376Z,10.00
2018-11-28T10:38:35.364Z,10.60
2018-11-28T10:39:35.352Z,10.30
2018-11-28T10:40:35.347Z,10.80
2018-11-28T10:41:35.341Z,10.10
2018-11-28T10:42:35.319Z,9.60
2018-11-28T10:43:35.310Z,9.80
2018-11-28T10:44:35.305Z,9.40
2018-11-28T10:45:35.285Z,9.20
2018-11-28T10:46:35.275Z,9.70
2018-11-28T10:47:35.271Z,8.60
2018-11-28T10:48:35.258Z,8.90
2018-11-28T10:49:35.249Z,8.90
2018-11-28T10:50:35.235Z,9.60
2018-11-28T10:51:35.234Z,8.00
2018-11-28T10:52:35.218Z,9.30
2018-11-28T10:53:35.204Z,9.30
2018-11-28T10:54:35.191Z,8.70
2018-11-28T10:55:35.183Z,8.40
2018-11-28T10:56:35.165Z,7.90
2018-11-28T10:57:35.184Z,8.70
2018-11-28T10:58:35.148Z,8.30
2018-11-28T10:59:35.142Z,8.50
2018-11-28T11:00:35.129Z,8.80
2018-11-28T11:01:35.131Z,7.50
2018-11-28T11:02:35.254Z,7.90
2018-11-28T11:03:35.093Z,7.40
2018-11-28T11:04:35.079Z,7.80
2018-11-28T11:05:35.075Z,7.20
2018-11-28T11:06:35.060Z,8.00
2018-11-28T11:07:35.043Z,7.70
2018-11-28T11:08:35.033Z,8.00
2018-11-28T11:09:35.022Z,7.60
2018-11-28T11:10:35.017Z,8.00
2018-11-28T11:11:35.003Z,8.30
2018-11-28T11:12:35.001Z,7.50
2018-11-28T11:13:34.976Z,7.70
2018-11-28T11:14:34.966Z,8.30
2018-11-28T11:15:34.955Z,8.40
2018-11-28T11:16:34.998Z,8.10
2018-11-28T11:17:34.938Z,8.10
2018-11-28T11:18:34.966Z,8.10
2018-11-28T11:19:34.915Z,8.20
2018-11-28T11:20:34.910Z,8.20
2018-11-28T11:21:34.889Z,8.50
2018-11-28T11:22:34.887Z,7.80
2018-11-28T11:23:34.870Z,8.00
2018-11-28T11:24:34.862Z,8.30
2018-11-28T11:25:34.850Z,7.90
2018-11-28T11:26:34.839Z,8.60
2018-11-28T11:27:34.830Z,8.80
2018-11-28T11:28:34.833Z,8.40
2018-11-28T11:29:34.805Z,8.00
2018-11-28T11:30:34.893Z,8.50
2018-11-28T11:31:34.784Z,8.30
2018-11-28T11:32:34.772Z,7.80
2018-11-28T11:33:34.763Z,9.00
2018-11-28T11:34:34.750Z,8.90
2018-11-28T11:35:34.739Z,8.50
2018-11-28T11:36:34.729Z,8.00
2018-11-28T11:37:34.747Z,8.20
2018-11-28T11:38:34.706Z,8.10
2018-11-28T11:39:34.702Z,7.60
2018-11-28T11:40:34.679Z,8.30
2018-11-28T11:41:34.674Z,8.00
2018-11-28T11:42:34.663Z,7.50
2018-11-28T11:43:34.652Z,7.50
2018-11-28T11:44:34.647Z,7.70
2018-11-28T11:45:34.634Z,6.70
2018-11-28T11:46:34.614Z,7.20
2018-11-28T11:47:34.604Z,7.00
2018-11-28T11:48:34.607Z,6.60
2018-11-28T11:49:34.586Z,7.00
2018-11-28T11:50:34.575Z,6.90
2018-11-28T11:51:34.559Z,6.90
2018-11-28T11:52:34.556Z,6.80
2018-11-28T11:53:34.541Z,6.20
2018-11-28T11:54:34.532Z,7.40
2018-11-28T11:55:34.522Z,7.30
2018-11-28T11:56:34.512Z,6.70
2018-11-28T11:57:34.493Z,6.80
2018-11-28T11:58:34.487Z,6.90
2018-11-28T11:59:34.477Z,6.80
2018-11-28T12:00:34.460Z,6.50
2018-11-28T12:01:34.463Z,7.00
2018-11-28T12:02:34.442Z,6.90
2018-11-28T12:03:34.432Z,6.50
2018-11-28T12:04:34.421Z,6.90
2018-11-28T12:05:34.441Z,7.00
2018-11-28T12:06:34.397Z,6.90
2018-11-28T12:07:34.389Z,7.30
2018-11-28T12:08:34.395Z,6.90
2018-11-28T12:09:34.421Z,6.60
2018-11-28T12:10:34.360Z,7.10
2018-11-28T12:11:34.341Z,7.20
2018-11-28T12:12:34.337Z,6.90
2018-11-28T12:13:34.319Z,6.80
2018-11-28T12:14:34.306Z,7.10
2018-11-28T12:15:35.653Z,7.20
2018-11-28T12:16:34.285Z,6.60
2018-11-28T12:17:34.297Z,6.90
2018-11-28T12:18:34.273Z,7.10
2018-11-28T12:19:34.269Z,6.50
2018-11-28T12:20:34.247Z,6.60
2018-11-28T12:21:34.235Z,7.40
2018-11-28T12:22:34.223Z,6.70
2018-11-28T12:23:34.213Z,7.70
2018-11-28T12:24:34.205Z,9.80
2018-11-28T12:25:34.189Z,8.90
2018-11-28T12:26:34.174Z,7.70
2018-11-28T12:27:34.168Z,6.90
2018-11-28T12:28:34.171Z,6.90
2018-11-28T12:29:34.174Z,6.30
2018-11-28T12:30:34.130Z,6.10
2018-11-28T12:31:34.125Z,6.20
2018-11-28T12:32:34.112Z,5.60
2018-11-28T12:33:34.104Z,6.00
2018-11-28T12:34:34.088Z,6.10
2018-11-28T12:35:34.085Z,5.80
2018-11-28T12:36:34.071Z,6.00
2018-11-28T12:37:34.054Z,6.30
2018-11-28T12:38:34.042Z,6.30
2018-11-28T12:39:34.099Z,6.10
2018-11-28T12:40:34.026Z,5.70
2018-11-28T12:41:34.012Z,6.10
2018-11-28T12:42:34.003Z,5.80
2018-11-28T12:43:33.992Z,6.00
2018-11-28T12:44:33.976Z,6.20
2018-11-28T12:45:33.972Z,6.20
2018-11-28T12:46:33.960Z,6.30
2018-11-28T12:47:33.953Z,6.50
2018-11-28T12:48:33.932Z,6.00
2018-11-28T12:49:33.928Z,6.00
2018-11-28T12:50:33.916Z,7.20
2018-11-28T12:51:33.899Z,6.00
2018-11-28T12:52:33.899Z,6.10
2018-11-28T12:53:33.878Z,5.90
2018-11-28T12:54:33.877Z,5.50
2018-11-28T12:55:33.860Z,5.60
2018-11-28T12:56:33.844Z,6.30
2018-11-28T12:57:33.833Z,5.70
2018-11-28T12:58:33.829Z,5.90
2018-11-28T12:59:33.817Z,6.20
2018-11-28T13:00:33.805Z,6.10
2018-11-28T13:01:33.794Z,5.80
2018-11-28T13:02:33.784Z,5.80
2018-11-28T13:03:33.783Z,6.20
2018-11-28T13:04:33.765Z,6.20
2018-11-28T13:05:33.817Z,6.60
2018-11-28T13:06:33.741Z,6.10
2018-11-28T13:07:33.724Z,6.30
2018-11-28T13:08:33.713Z,6.80
2018-11-28T13:09:33.701Z,6.20